createdAt,value
2022-07-26T00:01:25.873Z,96364.41
2022-07-26T00:04:01.514Z,96370.94
2022-07-26T00:06:29.281Z,96374.69
2022-07-26T00:08:57.020Z,96374.75
2022-07-26T00:11:25.725Z,96378.50
2022-07-26T00:13:55.138Z,96380.72
2022-07-26T00:16:24.034Z,96380.59
2022-07-26T00:18:54.550Z,96374.91
2022-07-26T00:21:32.554Z,96378.84
2022-07-26T00:24:00.215Z,96375.22
2022-07-26T00:26:30.437Z,96380.66
2022-07-26T00:28:58.078Z,96375.75
2022-07-26T00:31:26.111Z,96377.22
2022-07-26T00:33:56.860Z,96378.59
2022-07-26T00:36:24.954Z,96387.41
2022-07-26T00:38:54.456Z,96389.53
2022-07-26T00:41:23.277Z,96390.66
2022-07-26T00:43:55.001Z,96396.75
2022-07-26T00:46:25.772Z,96407.44
2022-07-26T00:48:53.686Z,96416.00
2022-07-26T00:51:21.870Z,96424.44
2022-07-26T00:53:55.367Z,96422.97
2022-07-26T00:56:27.106Z,96422.00
2022-07-26T00:58:56.853Z,96421.50
2022-07-26T01:01:24.590Z,96433.22
2022-07-26T01:03:53.128Z,96441.94
2022-07-26T01:06:25.209Z,96436.66
2022-07-26T01:08:54.676Z,96427.28
2022-07-26T01:11:22.420Z,96426.69
2022-07-26T01:13:52.278Z,96425.50
2022-07-26T01:16:20.198Z,96420.59
2022-07-26T01:18:48.327Z,96432.56
2022-07-26T01:21:15.956Z,96420.94
2022-07-26T01:23:45.186Z,96413.59
2022-07-26T01:26:13.933Z,96420.81
2022-07-26T01:28:44.913Z,96417.59
2022-07-26T01:31:13.787Z,96413.00
2022-07-26T01:33:42.385Z,96412.13
2022-07-26T01:36:10.104Z,96409.84
2022-07-26T01:38:37.730Z,96409.69
2022-07-26T01:41:07.153Z,96416.63
2022-07-26T01:43:34.896Z,96423.84
2022-07-26T01:46:02.940Z,96414.66
2022-07-26T01:48:32.143Z,96415.97
2022-07-26T01:50:59.951Z,96410.50
2022-07-26T01:53:27.689Z,96409.59
2022-07-26T01:55:57.710Z,96405.63
2022-07-26T01:58:29.706Z,96404.84
2022-07-26T02:00:57.864Z,96398.69
2022-07-26T02:03:25.577Z,96398.81
2022-07-26T02:05:53.298Z,96404.97
2022-07-26T02:08:21.309Z,96402.63
2022-07-26T02:11:04.057Z,96405.88
2022-07-26T02:13:36.898Z,96402.75
2022-07-26T02:16:05.157Z,96408.56
2022-07-26T02:18:35.149Z,96406.13
2022-07-26T02:21:03.144Z,96406.88
2022-07-26T02:23:33.160Z,96404.56
2022-07-26T02:26:01.327Z,96402.41
2022-07-26T02:28:29.300Z,96401.81
2022-07-26T02:30:58.788Z,96402.78
2022-07-26T02:33:26.584Z,96416.34
2022-07-26T02:35:54.335Z,96405.94
2022-07-26T02:38:22.352Z,96405.19
2022-07-26T02:40:52.621Z,96396.38
2022-07-26T02:43:20.494Z,96383.34
2022-07-26T02:46:01.771Z,96396.53
2022-07-26T02:48:31.866Z,96397.28
2022-07-26T02:53:30.094Z,96401.38
2022-07-26T02:55:58.041Z,96392.19
2022-07-26T02:58:28.561Z,96389.50
2022-07-26T03:00:56.294Z,96392.44
2022-07-26T03:03:24.105Z,96388.66
2022-07-26T03:05:54.179Z,96392.09
2022-07-26T03:08:24.762Z,96381.84
2022-07-26T03:10:55.237Z,96380.78
2022-07-26T03:13:23.109Z,96385.41
2022-07-26T03:15:50.745Z,96382.97
2022-07-26T03:18:18.422Z,96381.31
2022-07-26T03:20:48.163Z,96391.19
2022-07-26T03:23:17.532Z,96396.81
2022-07-26T03:25:47.670Z,96397.53
2022-07-26T03:28:19.548Z,96385.00
2022-07-26T03:30:49.430Z,96390.00
2022-07-26T03:35:44.956Z,96402.81
2022-07-26T03:38:14.918Z,96399.72
2022-07-26T03:40:58.474Z,96399.84
2022-07-26T03:43:26.521Z,96399.97
2022-07-26T03:45:54.915Z,96406.75
2022-07-26T03:48:24.124Z,96408.41
2022-07-26T03:50:54.627Z,96406.34
2022-07-26T03:53:23.861Z,96406.41
2022-07-26T03:56:16.316Z,96399.84
2022-07-26T03:58:44.209Z,96403.91
2022-07-26T04:01:15.111Z,96395.31
2022-07-26T04:03:47.531Z,96396.84
2022-07-26T04:06:16.355Z,96400.75
2022-07-26T04:08:50.299Z,96397.66
2022-07-26T04:11:20.855Z,96397.47
2022-07-26T04:13:48.599Z,96404.63
2022-07-26T04:16:16.682Z,96376.66
2022-07-26T04:18:48.804Z,96404.69
2022-07-26T04:21:16.557Z,96412.56
2022-07-26T04:23:49.197Z,96408.44
2022-07-26T04:26:21.188Z,96416.31
2022-07-26T04:28:49.211Z,96407.69
2022-07-26T04:31:17.054Z,96413.50
2022-07-26T04:33:45.270Z,96417.59
2022-07-26T04:36:14.101Z,96415.38
2022-07-26T04:38:42.293Z,96413.50
2022-07-26T04:41:10.488Z,96416.81
2022-07-26T04:43:42.697Z,96410.22
2022-07-26T04:46:10.735Z,96417.91
2022-07-26T04:48:39.195Z,96423.38
2022-07-26T04:51:09.877Z,96423.09
2022-07-26T04:53:37.546Z,96424.16
2022-07-26T04:56:08.024Z,96423.34
2022-07-26T04:58:35.774Z,96429.00
2022-07-26T05:01:12.408Z,96428.19
2022-07-26T05:03:40.150Z,96425.41
2022-07-26T05:06:08.377Z,96426.50
2022-07-26T05:08:36.109Z,96435.34
2022-07-26T05:11:04.308Z,96434.91
2022-07-26T05:13:36.728Z,96440.88
2022-07-26T05:16:12.006Z,96436.78
2022-07-26T05:18:49.132Z,96451.47
2022-07-26T05:21:19.699Z,96445.53
2022-07-26T05:23:47.543Z,96467.47
2022-07-26T05:26:15.430Z,96440.22
2022-07-26T05:28:44.372Z,96442.13
2022-07-26T05:31:13.601Z,96437.75
2022-07-26T05:33:43.174Z,96438.03
2022-07-26T05:36:11.309Z,96443.75
2022-07-26T05:38:39.785Z,96440.88
2022-07-26T05:41:07.854Z,96446.03
2022-07-26T05:43:41.721Z,96440.28
2022-07-26T05:46:10.428Z,96438.72
2022-07-26T05:48:46.257Z,96433.59
2022-07-26T05:51:18.347Z,96439.63
2022-07-26T05:53:49.266Z,96436.78
2022-07-26T05:56:22.213Z,96443.41
2022-07-26T05:58:59.031Z,96451.63
2022-07-26T06:01:26.992Z,96448.38
2022-07-26T06:03:56.561Z,96446.97
2022-07-26T06:06:25.911Z,96454.72
2022-07-26T06:08:53.685Z,96449.72
2022-07-26T06:11:23.562Z,96453.81
2022-07-26T06:13:56.386Z,96446.66
2022-07-26T06:16:26.703Z,96445.97
2022-07-26T06:18:56.429Z,96447.66
2022-07-26T06:21:26.655Z,96444.31
2022-07-26T06:23:54.739Z,96446.81
2022-07-26T06:26:23.879Z,96447.81
2022-07-26T06:28:52.164Z,96435.06
2022-07-26T06:31:20.112Z,96442.19
2022-07-26T06:33:48.762Z,96441.84
2022-07-26T06:36:16.900Z,96438.81
2022-07-26T06:38:48.900Z,96447.22
2022-07-26T06:41:17.121Z,96441.75
2022-07-26T06:43:48.526Z,96436.28
2022-07-26T06:46:17.095Z,96438.22
2022-07-26T06:48:47.471Z,96442.03
2022-07-26T06:51:15.479Z,96446.06
2022-07-26T06:53:43.189Z,96429.97
2022-07-26T06:56:15.132Z,96452.13
2022-07-26T06:58:42.963Z,96443.78
2022-07-26T07:01:10.778Z,96442.25
2022-07-26T07:03:39.983Z,96441.63
2022-07-26T07:06:07.865Z,96432.47
2022-07-26T07:08:38.811Z,96439.34
2022-07-26T07:11:08.737Z,96437.56
2022-07-26T07:13:38.239Z,96442.84
2022-07-26T07:16:06.809Z,96438.13
2022-07-26T07:18:37.514Z,96436.00
2022-07-26T07:21:10.218Z,96438.69
2022-07-26T07:23:39.492Z,96447.69
2022-07-26T07:26:08.066Z,96436.69
2022-07-26T07:28:38.851Z,96436.09
2022-07-26T07:31:07.157Z,96443.63
2022-07-26T07:33:52.587Z,96205.72
2022-07-26T07:36:21.120Z,96443.53
2022-07-26T07:38:49.395Z,96439.13
2022-07-26T07:41:18.971Z,96444.81
2022-07-26T07:43:48.622Z,96442.25
2022-07-26T07:46:16.414Z,96437.81
2022-07-26T07:48:47.739Z,96444.22
2022-07-26T07:51:16.157Z,96445.63
2022-07-26T07:53:56.840Z,96434.72
2022-07-26T07:56:29.920Z,96437.56
2022-07-26T07:59:00.246Z,96433.00
2022-07-26T08:01:40.337Z,96440.28
2022-07-26T08:04:11.606Z,96433.34
2022-07-26T08:06:41.263Z,96435.56
2022-07-26T08:09:09.574Z,96427.03
2022-07-26T08:11:41.985Z,96425.44
2022-07-26T08:14:12.323Z,96433.13
2022-07-26T08:16:41.573Z,96412.63
2022-07-26T08:19:12.392Z,96427.94
2022-07-26T08:21:40.822Z,96430.16
2022-07-26T08:24:11.234Z,96440.97
2022-07-26T08:26:39.071Z,96434.91
2022-07-26T08:29:07.029Z,96438.94
2022-07-26T08:31:36.854Z,96447.06
2022-07-26T08:34:05.419Z,96431.88
2022-07-26T08:36:33.326Z,96444.84
2022-07-26T08:39:01.737Z,96435.00
2022-07-26T08:41:30.462Z,96440.75
2022-07-26T08:44:05.391Z,96448.38
2022-07-26T08:46:34.189Z,96450.09
2022-07-26T08:49:04.982Z,96447.63
2022-07-26T08:51:35.724Z,96454.13
2022-07-26T08:54:06.153Z,96453.22
2022-07-26T08:56:35.991Z,96457.19
2022-07-26T08:59:07.568Z,96457.59
2022-07-26T09:01:36.057Z,96454.34
2022-07-26T09:04:31.756Z,96457.53
2022-07-26T09:07:05.019Z,96456.25
2022-07-26T09:09:36.680Z,96459.44
2022-07-26T09:12:17.986Z,96460.06
2022-07-26T09:14:47.936Z,96457.63
2022-07-26T09:17:17.847Z,96467.50
2022-07-26T09:19:49.741Z,96470.81
2022-07-26T09:22:17.981Z,96470.88
2022-07-26T09:24:46.394Z,96477.41
2022-07-26T09:27:18.083Z,96474.69
2022-07-26T09:29:47.430Z,96471.53
2022-07-26T09:32:19.130Z,96475.44
2022-07-26T09:34:57.769Z,96471.56
2022-07-26T09:37:36.795Z,96477.44
2022-07-26T09:40:08.694Z,96482.81
2022-07-26T09:42:36.780Z,96484.59
2022-07-26T09:45:05.079Z,96486.34
2022-07-26T09:47:39.619Z,96491.59
2022-07-26T09:50:13.568Z,96488.19
2022-07-26T09:52:42.032Z,96485.63
2022-07-26T09:55:11.203Z,96489.47
2022-07-26T09:57:40.842Z,96491.66
2022-07-26T10:00:09.867Z,96495.13
2022-07-26T10:02:38.148Z,96486.75
2022-07-26T10:05:06.545Z,96500.13
2022-07-26T10:07:37.943Z,96493.59
2022-07-26T10:10:06.477Z,96497.69
2022-07-26T10:12:34.385Z,96492.91
2022-07-26T10:15:03.060Z,96505.06
2022-07-26T10:17:41.701Z,96490.25
2022-07-26T10:20:17.322Z,96484.56
2022-07-26T10:22:50.920Z,96493.91
2022-07-26T10:25:34.062Z,96485.81
2022-07-26T10:28:02.577Z,96487.66
2022-07-26T10:30:41.587Z,96492.88
2022-07-26T10:33:12.003Z,96493.59
2022-07-26T10:35:41.946Z,96491.56
2022-07-26T10:38:13.276Z,96483.69
2022-07-26T10:40:58.040Z,96495.31
2022-07-26T10:43:43.094Z,96498.63
2022-07-26T10:46:29.787Z,96495.88
2022-07-26T10:48:58.809Z,96497.56
2022-07-26T10:51:27.864Z,96498.63
2022-07-26T10:54:08.313Z,96501.91
2022-07-26T10:56:36.680Z,96501.25
2022-07-26T10:59:05.192Z,96530.41
2022-07-26T11:01:36.608Z,96505.56
2022-07-26T11:04:05.699Z,96503.72
2022-07-26T11:06:38.023Z,96505.75
2022-07-26T11:09:13.121Z,96500.44
2022-07-26T11:11:47.017Z,96501.16
2022-07-26T11:14:16.435Z,96499.91
2022-07-26T11:16:46.912Z,96503.78
2022-07-26T11:19:16.114Z,96497.00
2022-07-26T11:21:47.032Z,96496.75
2022-07-26T11:24:16.451Z,96492.06
2022-07-26T11:26:44.650Z,96492.84
2022-07-26T11:29:17.038Z,96494.72
2022-07-26T11:31:55.618Z,96477.22
2022-07-26T11:34:30.083Z,96484.63
2022-07-26T11:36:58.860Z,96491.28
2022-07-26T11:39:28.870Z,96478.34
2022-07-26T11:41:58.112Z,96483.53
2022-07-26T11:44:26.185Z,96480.63
2022-07-26T11:47:01.178Z,96484.94
2022-07-26T11:52:25.005Z,96488.38
2022-07-26T11:54:59.037Z,96523.56
2022-07-26T11:57:38.247Z,96476.47
2022-07-26T12:00:07.058Z,96491.72
2022-07-26T12:02:35.153Z,96488.63
2022-07-26T12:05:16.946Z,96484.28
2022-07-26T12:08:04.842Z,96491.81
2022-07-26T12:10:37.477Z,96493.59
2022-07-26T12:13:11.856Z,96484.81
2022-07-26T12:15:52.675Z,96485.88
2022-07-26T12:18:24.915Z,96486.50
2022-07-26T12:21:05.726Z,96487.78
2022-07-26T12:23:45.245Z,96470.28
2022-07-26T12:26:22.360Z,96477.00
2022-07-26T12:28:50.577Z,96471.38
2022-07-26T12:31:23.799Z,96474.41
2022-07-26T12:33:54.720Z,96477.22
2022-07-26T12:36:27.842Z,96465.09
2022-07-26T12:38:57.814Z,96455.84
2022-07-26T12:41:34.019Z,96505.66
2022-07-26T12:44:03.099Z,96470.47
2022-07-26T12:46:33.582Z,96465.56
2022-07-26T12:49:02.097Z,96458.56
2022-07-26T12:51:30.134Z,96461.91
2022-07-26T12:53:58.206Z,96457.94
2022-07-26T12:56:26.173Z,96459.41
2022-07-26T12:59:01.151Z,96445.31
2022-07-26T13:01:29.495Z,96447.59
2022-07-26T13:03:57.860Z,96454.41
2022-07-26T13:06:25.697Z,96460.66
2022-07-26T13:08:53.810Z,96460.94
2022-07-26T13:11:21.696Z,96450.09
2022-07-26T13:13:49.734Z,96455.38
2022-07-26T13:16:22.459Z,96445.69
2022-07-26T13:18:50.518Z,96442.72
2022-07-26T13:21:18.801Z,96445.34
2022-07-26T13:23:47.157Z,96442.91
2022-07-26T13:26:15.838Z,96432.06
2022-07-26T13:28:44.549Z,96421.47
2022-07-26T13:31:19.238Z,96428.78
2022-07-26T13:33:47.438Z,96414.44
2022-07-26T13:36:15.902Z,96424.97
2022-07-26T13:38:45.854Z,96409.47
2022-07-26T13:41:18.666Z,96419.03
2022-07-26T13:43:46.737Z,96416.53
2022-07-26T13:46:14.573Z,96410.28
2022-07-26T13:49:00.004Z,96417.28
2022-07-26T13:51:44.025Z,96412.22
2022-07-26T13:54:13.859Z,96423.47
2022-07-26T13:56:45.026Z,96411.97
2022-07-26T13:59:13.050Z,96408.59
2022-07-26T14:01:44.777Z,96405.69
2022-07-26T14:04:15.901Z,96410.06
2022-07-26T14:06:44.544Z,96395.97
2022-07-26T14:09:18.170Z,96411.97
2022-07-26T14:11:48.525Z,96417.31
2022-07-26T14:14:16.423Z,96419.63
2022-07-26T14:16:48.057Z,96406.16
2022-07-26T14:19:18.995Z,96407.38
2022-07-26T14:21:58.882Z,96406.09
2022-07-26T14:24:27.805Z,96413.84
2022-07-26T14:26:59.809Z,96417.41
2022-07-26T14:29:32.545Z,96413.94
2022-07-26T14:32:00.881Z,96403.59
2022-07-26T14:34:32.554Z,96412.00
2022-07-26T14:37:00.325Z,96416.69
2022-07-26T14:39:28.220Z,96416.91
2022-07-26T14:41:55.917Z,96408.66
2022-07-26T14:44:25.971Z,96332.63
2022-07-26T14:46:55.148Z,96244.16
2022-07-26T14:49:22.879Z,96419.00
2022-07-26T14:51:58.980Z,96416.50
2022-07-26T14:54:27.810Z,96423.50
2022-07-26T14:56:55.539Z,96427.13
2022-07-26T14:59:23.303Z,96421.97
2022-07-26T15:01:52.826Z,96427.00
2022-07-26T15:04:20.586Z,96411.97
2022-07-26T15:06:48.268Z,96413.03
2022-07-26T15:09:22.389Z,96417.91
2022-07-26T15:11:50.085Z,96418.91
2022-07-26T15:14:18.445Z,96418.94
2022-07-26T15:16:46.533Z,96414.69
2022-07-26T15:19:14.717Z,96405.25
2022-07-26T15:21:43.487Z,96397.19
2022-07-26T15:24:14.181Z,96402.13
2022-07-26T15:26:45.308Z,96395.78
2022-07-26T15:29:13.626Z,96391.69
2022-07-26T15:31:41.595Z,96397.81
2022-07-26T15:34:10.043Z,96394.19
2022-07-26T15:36:40.620Z,96394.63
2022-07-26T15:39:23.506Z,96389.16
2022-07-26T15:41:52.617Z,96392.06
2022-07-26T15:44:25.801Z,96396.09
2022-07-26T15:46:54.154Z,96398.22
2022-07-26T15:49:22.810Z,96393.53
2022-07-26T15:51:51.578Z,96389.84
2022-07-26T15:54:20.549Z,96391.91
2022-07-26T15:56:48.910Z,96386.56
2022-07-26T15:59:18.093Z,96395.56
2022-07-26T16:01:52.117Z,96395.44
2022-07-26T16:04:24.271Z,96400.34
2022-07-26T16:06:55.298Z,96409.34
2022-07-26T16:09:24.204Z,96330.28
2022-07-26T16:11:55.002Z,96388.31
2022-07-26T16:14:24.856Z,96384.69
2022-07-26T16:16:52.742Z,96376.63
2022-07-26T16:19:20.510Z,96373.19
2022-07-26T16:21:49.016Z,96371.56
2022-07-26T16:24:17.102Z,96375.34
2022-07-26T16:26:48.144Z,96371.22
2022-07-26T16:29:16.628Z,96381.13
2022-07-26T16:31:46.453Z,96376.94
2022-07-26T16:34:16.853Z,96380.25
2022-07-26T16:36:44.611Z,96377.03
2022-07-26T16:39:12.577Z,96377.97
2022-07-26T16:41:40.832Z,96375.72
2022-07-26T16:44:11.810Z,96379.31
2022-07-26T16:46:39.684Z,96374.22
2022-07-26T16:49:09.825Z,96379.03
2022-07-26T16:51:37.809Z,96382.16
2022-07-26T16:54:06.090Z,96379.25
2022-07-26T16:56:35.047Z,96377.06
2022-07-26T16:59:07.457Z,96373.97
2022-07-26T17:01:39.086Z,96367.59
2022-07-26T17:04:08.459Z,96376.34
2022-07-26T17:07:07.814Z,96374.19
2022-07-26T17:09:36.709Z,96371.78
2022-07-26T17:12:06.898Z,96367.75
2022-07-26T17:14:37.280Z,96369.53
2022-07-26T17:17:05.301Z,96363.53
2022-07-26T17:19:34.599Z,96369.41
2022-07-26T17:22:02.421Z,96361.41
2022-07-26T17:24:30.107Z,96364.56
2022-07-26T17:26:58.046Z,96366.00
2022-07-26T17:29:25.779Z,96365.31
2022-07-26T17:31:55.072Z,96371.44
2022-07-26T17:34:22.765Z,96365.63
2022-07-26T17:36:55.622Z,96362.41
2022-07-26T17:39:51.427Z,96363.09
2022-07-26T17:42:14.867Z,96370.84
2022-07-26T17:44:45.561Z,96368.88
2022-07-26T17:47:29.089Z,96367.81
2022-07-26T17:50:34.767Z,96374.41
2022-07-26T17:52:57.669Z,96368.44
2022-07-26T17:55:25.642Z,96371.16
2022-07-26T17:57:53.693Z,96374.13
2022-07-26T18:00:29.144Z,96375.22
2022-07-26T18:02:57.503Z,96369.63
2022-07-26T18:05:32.566Z,96368.22
2022-07-26T18:08:03.821Z,96370.56
2022-07-26T18:10:31.559Z,96361.03
2022-07-26T18:12:59.409Z,96362.69
2022-07-26T18:15:27.864Z,96361.94
2022-07-26T18:17:55.623Z,96366.25
2022-07-26T18:20:24.271Z,96356.44
2022-07-26T18:22:56.619Z,96357.81
2022-07-26T18:25:27.381Z,96359.38
2022-07-26T18:27:57.446Z,96362.00
2022-07-26T18:30:30.885Z,96367.47
2022-07-26T18:32:58.679Z,96357.47
2022-07-26T18:35:32.509Z,96364.72
2022-07-26T18:38:00.426Z,96362.56
2022-07-26T18:40:29.496Z,96365.25
2022-07-26T18:42:59.129Z,96370.31
2022-07-26T18:45:29.865Z,96373.41
2022-07-26T18:47:57.723Z,96370.31
2022-07-26T18:50:30.968Z,96369.22
2022-07-26T18:53:01.245Z,96370.25
2022-07-26T18:55:30.837Z,96378.16
2022-07-26T18:58:03.250Z,96381.69
2022-07-26T19:00:40.133Z,96375.66
2022-07-26T19:03:08.631Z,96382.78
2022-07-26T19:05:36.576Z,96389.25
2022-07-26T19:08:04.904Z,96410.94
2022-07-26T19:10:48.136Z,96393.66
2022-07-26T19:13:16.184Z,96397.56
2022-07-26T19:15:45.919Z,96396.66
2022-07-26T19:18:18.537Z,96410.31
2022-07-26T19:20:46.381Z,96409.19
2022-07-26T19:23:14.509Z,96409.38
2022-07-26T19:25:44.333Z,96414.34
2022-07-26T19:28:12.778Z,96416.34
2022-07-26T19:30:42.120Z,96419.31
2022-07-26T19:33:09.941Z,96417.66
2022-07-26T19:35:37.817Z,96420.81
2022-07-26T19:38:05.786Z,96429.00
2022-07-26T19:40:33.834Z,96422.97
2022-07-26T19:43:06.054Z,96439.47
2022-07-26T19:45:33.867Z,96437.69
2022-07-26T19:48:02.454Z,96436.09
2022-07-26T19:50:30.233Z,96442.00
2022-07-26T19:52:58.108Z,96439.22
2022-07-26T19:55:25.811Z,96476.47
2022-07-26T19:57:53.427Z,96442.03
2022-07-26T20:00:23.638Z,96444.94
2022-07-26T20:02:54.210Z,96446.22
2022-07-26T20:05:24.436Z,96455.44
2022-07-26T20:07:52.286Z,96449.16
2022-07-26T20:10:20.352Z,96450.03
2022-07-26T20:12:49.389Z,96445.09
2022-07-26T20:15:22.508Z,96452.41
2022-07-26T20:17:51.971Z,96449.94
2022-07-26T20:20:23.020Z,96446.72
2022-07-26T20:22:53.951Z,96449.97
2022-07-26T20:25:22.142Z,96459.31
2022-07-26T20:27:51.491Z,96452.66
2022-07-26T20:30:19.273Z,96455.09
2022-07-26T20:32:47.667Z,96448.50
2022-07-26T20:35:19.377Z,96454.09
2022-07-26T20:37:47.424Z,96451.72
2022-07-26T20:40:17.945Z,96449.72
2022-07-26T20:42:47.475Z,96452.88
2022-07-26T20:45:17.748Z,96456.06
2022-07-26T20:47:45.908Z,96457.28
2022-07-26T20:50:13.732Z,96455.91
2022-07-26T20:52:45.077Z,96454.56
2022-07-26T20:55:12.840Z,96455.38
2022-07-26T20:57:47.017Z,96458.63
2022-07-26T21:00:18.348Z,96452.63
2022-07-26T21:02:46.148Z,96451.63
2022-07-26T21:05:17.849Z,96456.66
2022-07-26T21:07:55.709Z,96452.81
2022-07-26T21:10:29.590Z,96458.31
2022-07-26T21:13:00.444Z,96452.22
2022-07-26T21:15:28.800Z,96457.38
2022-07-26T21:17:56.826Z,96450.72
2022-07-26T21:20:24.488Z,96449.66
2022-07-26T21:23:03.417Z,96460.53
2022-07-26T21:25:36.270Z,96449.72
2022-07-26T21:28:04.372Z,96449.28
2022-07-26T21:30:33.126Z,96454.91
2022-07-26T21:33:00.782Z,96460.81
2022-07-26T21:35:28.787Z,96456.88
2022-07-26T21:37:59.864Z,96453.59
2022-07-26T21:40:30.198Z,96454.69
2022-07-26T21:42:58.802Z,96460.75
2022-07-26T21:45:26.671Z,96457.31
2022-07-26T21:47:55.031Z,96454.38
2022-07-26T21:50:23.082Z,96456.63
2022-07-26T21:52:50.790Z,96452.03
2022-07-26T21:55:21.392Z,96458.44
2022-07-26T21:57:50.216Z,96462.97
2022-07-26T22:00:18.579Z,96446.16
2022-07-26T22:02:48.589Z,96450.16
2022-07-26T22:05:34.052Z,96450.59
2022-07-26T22:08:01.755Z,96450.16
2022-07-26T22:10:31.133Z,96458.97
2022-07-26T22:12:58.904Z,96455.38
2022-07-26T22:15:26.564Z,96450.75
2022-07-26T22:17:56.412Z,96455.84
2022-07-26T22:20:25.348Z,96454.09
2022-07-26T22:22:53.451Z,96459.88
2022-07-26T22:25:23.613Z,96462.53
2022-07-26T22:27:52.959Z,96453.56
2022-07-26T22:30:22.686Z,96453.59
2022-07-26T22:32:50.460Z,96453.13
2022-07-26T22:35:18.223Z,96460.88
2022-07-26T22:37:48.985Z,96457.84
2022-07-26T22:40:19.605Z,96455.00
2022-07-26T22:42:48.196Z,96452.31
2022-07-26T22:45:17.551Z,96458.41
2022-07-26T22:47:55.814Z,96455.13
2022-07-26T22:50:27.327Z,96459.75
2022-07-26T22:52:55.665Z,96458.25
2022-07-26T22:55:28.193Z,96455.00
2022-07-26T22:57:56.413Z,96450.94
2022-07-26T23:00:28.399Z,96458.22
2022-07-26T23:02:56.504Z,96455.00
2022-07-26T23:05:30.734Z,96455.94
2022-07-26T23:08:45.671Z,96461.88
2022-07-26T23:11:03.841Z,96462.47
2022-07-26T23:13:33.928Z,96470.94
2022-07-26T23:16:07.050Z,96467.16
2022-07-26T23:18:35.465Z,96464.03
2022-07-26T23:21:04.263Z,96467.88
2022-07-26T23:23:32.430Z,96462.91
2022-07-26T23:26:14.113Z,96460.13
2022-07-26T23:28:42.863Z,96459.09
2022-07-26T23:31:15.620Z,96465.53
2022-07-26T23:33:52.971Z,96462.69
2022-07-26T23:36:29.499Z,96459.56
2022-07-26T23:38:57.401Z,96465.53
2022-07-26T23:41:27.884Z,96460.94
2022-07-26T23:43:57.993Z,96459.88
2022-07-26T23:46:27.525Z,96465.59
2022-07-26T23:48:55.604Z,96469.06
2022-07-26T23:51:25.491Z,96463.72
2022-07-26T23:53:53.915Z,96473.09
2022-07-26T23:56:21.983Z,96474.59
2022-07-26T23:58:50.177Z,96471.13
